Time;durP1;ratioP1;P1;durP2;ratioP2;P2;SDS_P1;SDS_P2;PMS_P1;PMS_P2;Temp;Humidity;BMP_temperature;BMP_pressure;BME280_temperature;BME280_humidity;BME280_pressure;Samples;Min_cycle;Max_cycle;Signal;HPM_P1;HPM_P2
2022/11/27 00:00:24;;;;;;;7.88;5.63;;;;;;;-3.09;100.00;94048.50;2111947;28;20114;-73
2022/11/27 00:01:27;;;;;;;9.15;5.65;;;;;;;-3.05;100.00;94052.03;2103450;28;20024;-75
2022/11/27 00:02:28;;;;;;;7.22;5.70;;;;;;;-3.00;100.00;94035.44;2102634;28;20550;-72
2022/11/27 00:03:29;;;;;;;11.27;5.70;;;;;;;-3.04;100.00;94037.88;2104084;28;20016;-74
2022/11/27 00:04:30;;;;;;;10.20;6.40;;;;;;;-3.10;100.00;94038.34;2104079;28;20019;-72
2022/11/27 00:05:31;;;;;;;7.85;6.32;;;;;;;-3.17;100.00;94043.25;2104055;28;20107;-73
2022/11/27 00:06:33;;;;;;;8.95;5.38;;;;;;;-3.16;100.00;94029.91;2103644;28;20567;-73
2022/11/27 00:07:34;;;;;;;7.72;5.82;;;;;;;-3.09;100.00;94032.81;2104030;28;20520;-72
2022/11/27 00:08:35;;;;;;;5.78;5.20;;;;;;;-3.15;100.00;94031.44;2102828;28;20066;-75
2022/11/27 00:09:36;;;;;;;7.13;5.43;;;;;;;-3.15;100.00;94028.06;2103390;28;20024;-75
2022/11/27 00:10:37;;;;;;;9.15;5.80;;;;;;;-3.13;100.00;94033.72;2104074;28;20112;-74
2022/11/27 00:11:39;;;;;;;8.48;5.00;;;;;;;-3.10;100.00;94027.91;2103311;28;20050;-75
2022/11/27 00:12:40;;;;;;;6.32;5.15;;;;;;;-3.04;100.00;94022.19;2104465;28;20028;-75
2022/11/27 00:13:41;;;;;;;6.47;5.55;;;;;;;-3.08;100.00;94023.13;2104935;28;20035;-72
2022/11/27 00:14:42;;;;;;;8.40;5.88;;;;;;;-3.04;100.00;94030.03;2105450;28;20020;-71
2022/11/27 00:15:43;;;;;;;7.30;5.80;;;;;;;-3.15;100.00;94017.59;2105776;28;20028;-72
2022/11/27 00:16:44;;;;;;;7.78;5.53;;;;;;;-3.18;100.00;94016.34;2105172;28;20098;-72
2022/11/27 00:17:45;;;;;;;5.70;4.55;;;;;;;-3.18;100.00;94011.13;2097191;28;20439;-72
2022/11/27 00:18:47;;;;;;;5.47;4.95;;;;;;;-3.13;100.00;94012.81;2112233;28;20057;-76
2022/11/27 00:19:48;;;;;;;6.95;4.80;;;;;;;-3.13;100.00;94010.97;2105847;28;20107;-74
2022/11/27 00:20:49;;;;;;;6.25;4.95;;;;;;;-3.08;100.00;94010.81;2105405;28;20023;-76
2022/11/27 00:21:50;;;;;;;5.55;4.68;;;;;;;-3.08;100.00;94005.56;2105625;28;20020;-75
2022/11/27 00:22:51;;;;;;;6.13;5.00;;;;;;;-3.06;100.00;94005.28;2106407;28;20023;-72
2022/11/27 00:23:53;;;;;;;6.18;5.55;;;;;;;-3.10;100.00;94006.97;2105326;28;20087;-73
2022/11/27 00:24:54;;;;;;;7.63;5.05;;;;;;;-3.07;100.00;94006.38;2097472;28;20025;-72
2022/11/27 00:25:55;;;;;;;8.55;5.65;;;;;;;-3.13;100.00;93992.66;2097073;28;20028;-72
2022/11/27 00:26:56;;;;;;;7.63;4.97;;;;;;;-3.03;100.00;93999.44;2104895;28;20407;-75
2022/11/27 00:27:57;;;;;;;8.02;5.10;;;;;;;-3.10;100.00;93994.66;2105264;28;20084;-72
2022/11/27 00:28:59;;;;;;;6.45;5.53;;;;;;;-3.06;100.00;93994.84;2105314;28;20519;-74
2022/11/27 00:30:01;;;;;;;8.13;5.28;;;;;;;-3.10;100.00;93999.91;2106123;28;20074;-72
2022/11/27 00:31:06;;;;;;;10.48;5.13;;;;;;;-3.02;100.00;93992.38;2106331;28;20408;-74
2022/11/27 00:32:07;;;;;;;6.63;5.28;;;;;;;-3.07;100.00;93990.69;2105606;28;20036;-72
2022/11/27 00:33:08;;;;;;;6.78;4.65;;;;;;;-3.05;100.00;93986.66;2105105;28;20081;-72
2022/11/27 00:34:09;;;;;;;9.60;5.53;;;;;;;-3.08;100.00;93987.28;2110067;28;20039;-72
2022/11/27 00:35:10;;;;;;;17.90;5.90;;;;;;;-3.01;100.00;93980.84;2113878;28;20069;-73
2022/11/27 00:36:13;;;;;;;11.93;5.45;;;;;;;-3.08;100.00;93979.44;2103425;28;20080;-75
2022/11/27 00:37:14;;;;;;;12.95;5.47;;;;;;;-3.02;100.00;93981.91;2097091;28;20025;-72
2022/11/27 00:38:15;;;;;;;8.55;5.65;;;;;;;-2.98;100.00;93986.22;2105562;28;20024;-73
2022/11/27 00:39:16;;;;;;;6.43;4.90;;;;;;;-2.98;100.00;93975.75;2105221;28;20024;-71
2022/11/27 00:40:16;;;;;;;10.20;5.43;;;;;;;-3.07;100.00;93980.22;2113312;28;20023;-75
2022/11/27 00:41:23;;;;;;;8.65;5.32;;;;;;;-3.02;100.00;93976.69;2113605;28;20222;-76
2022/11/27 00:42:25;;;;;;;7.88;4.97;;;;;;;-3.00;100.00;93980.50;2106410;28;20872;-75
2022/11/27 00:43:26;;;;;;;6.25;4.82;;;;;;;-2.96;100.00;93980.66;2113919;28;20077;-74
2022/11/27 00:44:26;;;;;;;7.82;5.20;;;;;;;-3.02;100.00;93981.91;2113797;28;20023;-75
2022/11/27 00:45:28;;;;;;;8.70;5.72;;;;;;;-2.98;100.00;93981.00;2104705;28;20028;-75
2022/11/27 00:46:30;;;;;;;7.35;5.80;;;;;;;-2.93;100.00;93982.69;2105316;28;20122;-75
2022/11/27 00:47:31;;;;;;;6.97;4.90;;;;;;;-2.94;100.00;93979.28;2114439;28;20031;-72
2022/11/27 00:48:33;;;;;;;7.40;5.60;;;;;;;-2.95;100.00;93971.75;2114552;28;20338;-73
2022/11/27 00:49:34;;;;;;;11.15;6.00;;;;;;;-2.95;100.00;93969.13;2114509;28;20406;-71
2022/11/27 00:50:34;;;;;;;11.32;5.28;;;;;;;-2.95;100.00;93963.91;2113818;28;20132;-72
2022/11/27 00:51:35;;;;;;;7.68;4.75;;;;;;;-2.93;100.00;93975.59;2105003;28;20032;-74
2022/11/27 00:52:36;;;;;;;9.73;5.20;;;;;;;-2.99;100.00;93968.19;2113575;28;20019;-73
2022/11/27 00:53:38;;;;;;;8.68;6.40;;;;;;;-3.04;100.00;93961.28;2114878;28;20024;-71
2022/11/27 00:54:38;;;;;;;11.02;5.03;;;;;;;-3.02;100.00;93961.00;2114230;28;20026;-72
2022/11/27 00:55:39;;;;;;;7.28;4.90;;;;;;;-3.01;100.00;93955.44;2105746;28;20102;-72
2022/11/27 00:56:40;;;;;;;5.20;4.70;;;;;;;-3.02;100.00;93958.38;2109827;28;20024;-71
2022/11/27 00:57:41;;;;;;;5.53;4.40;;;;;;;-3.07;100.00;93948.84;2114023;28;20062;-74
2022/11/27 00:58:42;;;;;;;4.65;4.25;;;;;;;-3.04;100.00;93956.06;2114365;28;20019;-73
2022/11/27 00:59:43;;;;;;;7.30;4.78;;;;;;;-3.04;100.00;93953.44;2114289;28;20024;-73
2022/11/27 01:00:44;;;;;;;6.53;5.03;;;;;;;-3.18;100.00;93958.84;2113484;28;20051;-71
2022/11/27 01:01:45;;;;;;;7.75;4.28;;;;;;;-3.15;100.00;93947.78;2113842;28;20042;-72
2022/11/27 01:02:46;;;;;;;5.82;4.03;;;;;;;-3.20;100.00;93940.09;2113531;28;20073;-74
2022/11/27 01:03:49;;;;;;;6.78;4.75;;;;;;;-3.14;100.00;93953.75;2113176;28;20087;-74
2022/11/27 01:04:50;;;;;;;6.05;4.07;;;;;;;-3.08;100.00;93949.91;2113358;28;20569;-72
2022/11/27 01:05:51;;;;;;;5.53;3.92;;;;;;;-2.97;100.00;93953.00;2106299;28;20024;-73
2022/11/27 01:06:52;;;;;;;5.72;4.50;;;;;;;-2.93;100.00;93948.69;2105025;28;20454;-73
2022/11/27 01:07:53;;;;;;;7.68;4.60;;;;;;;-2.99;100.00;93950.66;2105963;28;20108;-73
2022/11/27 01:08:55;;;;;;;5.60;4.25;;;;;;;-3.05;100.00;93947.44;2105193;28;20077;-73
2022/11/27 01:09:56;;;;;;;5.68;4.30;;;;;;;-3.05;100.00;93950.06;2104673;28;20031;-72
2022/11/27 01:10:58;;;;;;;5.47;4.00;;;;;;;-3.06;100.00;93950.38;2104588;28;20700;-73
2022/11/27 01:11:59;;;;;;;6.07;4.22;;;;;;;-3.00;100.00;93948.38;2105225;28;20106;-74
2022/11/27 01:12:59;;;;;;;5.35;3.85;;;;;;;-3.02;100.00;93948.69;2105806;28;20020;-74
2022/11/27 01:14:07;;;;;;;5.53;3.80;;;;;;;-3.05;100.00;93949.28;2105123;28;20024;-72
2022/11/27 01:15:08;;;;;;;5.00;4.13;;;;;;;-3.08;100.00;93942.06;2105614;28;20024;-74
2022/11/27 01:16:13;;;;;;;6.10;4.43;;;;;;;-3.05;100.00;93954.53;2106831;28;20028;-71
2022/11/27 01:17:13;;;;;;;5.63;4.15;;;;;;;-3.10;100.00;93945.00;2105743;28;20040;-73
2022/11/27 01:18:14;;;;;;;7.95;4.25;;;;;;;-3.05;100.00;93947.44;2106339;28;20032;-71
2022/11/27 01:19:15;;;;;;;7.47;4.00;;;;;;;-3.08;100.00;93955.13;2110802;28;20038;-73
2022/11/27 01:20:16;;;;;;;4.80;4.05;;;;;;;-3.07;100.00;93948.84;2114726;28;20030;-74
2022/11/27 01:21:20;;;;;;;6.75;4.10;;;;;;;-3.21;100.00;93948.97;2113611;28;20373;-75
2022/11/27 01:22:21;;;;;;;7.43;4.78;;;;;;;-3.19;100.00;93951.31;2114650;28;20028;-74
2022/11/27 01:23:23;;;;;;;7.07;4.40;;;;;;;-3.16;100.00;93943.63;2113953;28;20023;-73
2022/11/27 01:24:24;;;;;;;6.85;4.95;;;;;;;-3.15;100.00;93941.78;2113869;28;20031;-72
2022/11/27 01:25:24;;;;;;;6.82;4.70;;;;;;;-3.12;100.00;93951.59;2114265;28;20030;-74
2022/11/27 01:26:26;;;;;;;6.03;4.97;;;;;;;-3.25;100.00;93939.44;2108156;28;20062;-73
2022/11/27 01:27:27;;;;;;;6.80;5.30;;;;;;;-3.16;100.00;93935.78;2097080;28;20029;-72
2022/11/27 01:28:28;;;;;;;9.35;5.00;;;;;;;-3.16;100.00;93940.22;2104728;28;20482;-73
2022/11/27 01:29:29;;;;;;;7.55;4.68;;;;;;;-3.15;100.00;93931.31;2105631;28;20036;-73
2022/11/27 01:30:30;;;;;;;7.47;5.15;;;;;;;-3.18;100.00;93935.31;2105986;28;20533;-73
2022/11/27 01:31:33;;;;;;;7.07;4.85;;;;;;;-3.27;100.00;93925.94;2105628;28;20028;-71
2022/11/27 01:32:34;;;;;;;7.18;5.28;;;;;;;-3.21;100.00;93922.84;2105957;28;20032;-71
2022/11/27 01:33:35;;;;;;;6.65;5.13;;;;;;;-3.20;100.00;93932.25;2106073;28;20081;-71
2022/11/27 01:34:35;;;;;;;9.75;5.50;;;;;;;-3.20;100.00;93928.88;2105225;28;20109;-71
2022/11/27 01:35:36;;;;;;;6.18;4.88;;;;;;;-3.19;100.00;93936.38;2105265;28;20030;-71
2022/11/27 01:36:39;;;;;;;8.30;5.63;;;;;;;-3.27;100.00;93928.53;2105269;28;20039;-71
2022/11/27 01:37:40;;;;;;;6.93;4.93;;;;;;;-3.22;100.00;93931.78;2105600;28;20024;-71
2022/11/27 01:38:42;;;;;;;7.88;5.93;;;;;;;-3.24;100.00;93930.56;2105699;28;20339;-71
2022/11/27 01:39:43;;;;;;;8.80;5.70;;;;;;;-3.23;100.00;93932.84;2105112;28;20382;-71
2022/11/27 01:40:44;;;;;;;10.05;6.03;;;;;;;-3.21;100.00;93924.69;2105440;28;20572;-71
2022/11/27 01:41:47;;;;;;;10.25;6.57;;;;;;;-3.21;100.00;93930.69;2107691;28;20016;-72
2022/11/27 01:42:48;;;;;;;10.98;6.78;;;;;;;-3.24;100.00;93923.47;2114039;28;20085;-71
2022/11/27 01:43:54;;;;;;;8.00;6.53;;;;;;;-3.27;100.00;93918.09;2114193;28;20019;-71
2022/11/27 01:44:56;;;;;;;10.15;6.25;;;;;;;-3.25;100.00;93929.75;2113974;28;20462;-71
2022/11/27 01:45:57;;;;;;;8.48;6.30;;;;;;;-3.31;100.00;93920.56;2113628;28;20019;-71
2022/11/27 01:47:13;;;;;;;11.20;6.15;;;;;;;-3.32;100.00;93917.16;2113375;27;20330;-71
2022/11/27 01:48:15;;;;;;;9.90;6.38;;;;;;;-3.32;100.00;93924.25;2113913;28;20477;-71
2022/11/27 01:49:19;;;;;;;10.00;6.60;;;;;;;-3.39;100.00;93924.69;2104763;28;20104;-71
2022/11/27 01:50:32;;;;;;;7.28;5.55;;;;;;;-3.32;100.00;93916.41;2105684;28;20028;-71
2022/11/27 01:51:43;;;;;;;9.18;5.70;;;;;;;-3.40;100.00;93917.94;2114026;28;20024;-71
2022/11/27 01:52:49;;;;;;;9.45;6.43;;;;;;;-3.42;100.00;93909.66;2104654;28;20040;-72
2022/11/27 01:53:52;;;;;;;9.05;5.88;;;;;;;-3.36;100.00;93915.47;2097159;28;20024;-72
2022/11/27 01:55:05;;;;;;;10.80;6.82;;;;;;;-3.39;100.00;93916.84;2104940;28;20093;-72
2022/11/27 01:56:07;;;;;;;13.30;6.72;;;;;;;-3.31;100.00;93913.47;2104704;28;20126;-72
2022/11/27 01:57:29;;;;;;;9.23;6.38;;;;;;;-3.37;100.00;93914.72;2106780;28;20267;-72
2022/11/27 01:58:32;;;;;;;8.27;5.80;;;;;;;-3.34;100.00;93910.69;2113092;28;20028;-75
2022/11/27 01:59:33;;;;;;;7.28;5.75;;;;;;;-3.34;100.00;93902.88;2113808;28;20027;-72
2022/11/27 02:00:34;;;;;;;8.18;5.80;;;;;;;-3.36;100.00;93905.78;2113262;28;20027;-71
2022/11/27 02:01:35;;;;;;;8.80;6.32;;;;;;;-3.38;100.00;93902.72;2113314;28;20096;-72
2022/11/27 02:02:36;;;;;;;7.60;6.00;;;;;;;-3.38;100.00;93907.97;2113050;28;20051;-74
2022/11/27 02:03:37;;;;;;;9.88;6.43;;;;;;;-3.36;100.00;93908.41;2104849;28;20032;-74
2022/11/27 02:04:38;;;;;;;9.70;6.35;;;;;;;-3.38;100.00;93901.94;2104595;28;20020;-75
2022/11/27 02:05:39;;;;;;;9.18;6.07;;;;;;;-3.47;100.00;93909.00;2113447;28;20454;-74
2022/11/27 02:06:40;;;;;;;10.65;6.25;;;;;;;-3.45;100.00;93899.81;2107647;28;20453;-76
2022/11/27 02:07:41;;;;;;;7.65;6.30;;;;;;;-3.42;100.00;93896.59;2105290;28;20107;-72
2022/11/27 02:08:43;;;;;;;9.70;5.93;;;;;;;-3.43;100.00;93899.47;2105725;28;20080;-74
2022/11/27 02:09:44;;;;;;;10.80;6.15;;;;;;;-3.40;100.00;93904.88;2105554;28;20020;-72
2022/11/27 02:11:11;;;;;;;10.52;6.38;;;;;;;-3.46;100.00;93895.66;2105011;28;20035;-72
2022/11/27 02:12:23;;;;;;;9.65;5.95;;;;;;;-3.48;100.00;93887.34;2105334;28;20027;-74
2022/11/27 02:13:42;;;;;;;10.32;5.75;;;;;;;-3.44;100.00;93890.88;2104593;28;20016;-74
2022/11/27 02:16:58;;;;;;;;;;;;;;;-3.56;100.00;93881.06;2147007;27;20546;-73
2022/11/27 02:18:10;;;;;;;8.15;5.85;;;;;;;-3.54;100.00;93878.13;2145937;27;19919;-73
2022/11/27 02:19:26;;;;;;;9.38;6.10;;;;;;;-3.52;100.00;93883.81;2141161;27;20026;-73
2022/11/27 02:20:46;;;;;;;8.32;5.85;;;;;;;-3.52;100.00;93873.34;2146718;27;20099;-73
2022/11/27 02:21:57;;;;;;;;;;;;;;;-3.65;100.00;93882.88;2147103;27;20026;-73
2022/11/27 02:23:23;;;;;;;10.20;4.97;;;;;;;-3.61;100.00;93881.19;2146630;27;20288;-73
2022/11/27 02:24:32;;;;;;;9.93;5.72;;;;;;;-3.61;100.00;93881.19;2137913;27;20022;-73
2022/11/27 02:25:42;;;;;;;9.48;6.40;;;;;;;-3.59;100.00;93881.66;2138410;27;20633;-75
2022/11/27 02:26:49;;;;;;;11.07;5.75;;;;;;;-3.55;100.00;93881.81;2120375;28;20027;-74
2022/11/27 02:28:15;;;;;;;9.65;5.97;;;;;;;-3.64;100.00;93881.06;2122512;27;20031;-74
2022/11/27 02:29:21;;;;;;;7.40;4.95;;;;;;;-3.70;100.00;93874.44;2139451;27;20033;-74
2022/11/27 02:30:22;;;;;;;9.90;5.68;;;;;;;-3.66;100.00;93872.75;2146681;27;20030;-74
2022/11/27 02:31:41;;;;;;;8.43;5.50;;;;;;;-3.74;100.00;93876.88;2146888;27;20033;-74
2022/11/27 02:32:56;;;;;;;11.10;6.13;;;;;;;-3.69;100.00;93875.97;2147046;27;20025;-73
2022/11/27 02:34:06;;;;;;;8.50;5.68;;;;;;;-3.66;100.00;93878.75;2146414;27;20033;-73
2022/11/27 02:35:17;;;;;;;9.18;5.07;;;;;;;-3.68;100.00;93872.31;2138139;27;20025;-72
2022/11/27 02:36:22;;;;;;;8.73;5.47;;;;;;;-3.72;100.00;93881.81;2137983;27;20410;-72
2022/11/27 02:37:35;;;;;;;8.93;5.30;;;;;;;-3.70;100.00;93883.03;2138111;27;20484;-72
2022/11/27 02:38:45;;;;;;;8.73;5.13;;;;;;;-3.69;100.00;93881.19;2137774;27;20595;-72
2022/11/27 02:40:11;;;;;;;7.35;4.93;;;;;;;-3.69;100.00;93884.56;2138134;27;20022;-72
2022/11/27 02:41:23;;;;;;;9.18;5.25;;;;;;;-3.72;100.00;93884.44;2138144;27;20520;-72
2022/11/27 02:42:29;;;;;;;8.75;5.20;;;;;;;-3.75;100.00;93883.19;2128990;27;20019;-72
2022/11/27 02:43:39;;;;;;;8.82;5.47;;;;;;;-3.77;100.00;93890.56;2129750;27;20058;-72
2022/11/27 02:44:46;;;;;;;8.18;5.05;;;;;;;-3.76;100.00;93878.28;2137935;27;20034;-71
2022/11/27 02:45:50;;;;;;;8.52;5.07;;;;;;;-3.77;100.00;93881.97;2138203;27;20051;-71
2022/11/27 02:46:53;;;;;;;6.82;4.63;;;;;;;-3.67;100.00;93890.28;2128163;27;20023;-71
2022/11/27 02:47:56;;;;;;;8.15;4.88;;;;;;;-3.72;100.00;93882.59;2120192;27;20032;-71
2022/11/27 02:49:02;;;;;;;6.82;5.03;;;;;;;-3.80;100.00;93889.34;2129391;27;20062;-71
2022/11/27 02:50:06;;;;;;;5.78;4.97;;;;;;;-3.75;100.00;93882.44;2141614;27;20021;-71
2022/11/27 02:51:08;;;;;;;7.75;4.57;;;;;;;-3.67;100.00;93879.06;2137489;27;20033;-71
2022/11/27 02:52:12;;;;;;;8.60;5.03;;;;;;;-3.73;100.00;93888.91;2137556;27;20018;-71
2022/11/27 02:53:20;;;;;;;8.02;5.13;;;;;;;-3.80;100.00;93885.97;2146462;27;20018;-71
2022/11/27 02:54:27;;;;;;;9.20;4.95;;;;;;;-3.82;100.00;93883.66;2146394;27;20491;-71
2022/11/27 02:55:33;;;;;;;6.97;4.75;;;;;;;-3.82;100.00;93883.66;2140076;27;20050;-71
2022/11/27 02:56:36;;;;;;;6.45;4.20;;;;;;;-3.78;100.00;93888.25;2137827;27;20033;-71
2022/11/27 02:57:39;;;;;;;6.57;4.80;;;;;;;-3.80;100.00;93886.72;2138239;27;20030;-71
2022/11/27 02:58:40;;;;;;;7.82;4.68;;;;;;;-3.80;100.00;93888.56;2120206;28;20359;-71
2022/11/27 02:59:44;;;;;;;7.68;4.28;;;;;;;-3.84;100.00;93883.19;2120041;27;20019;-71
2022/11/27 03:00:46;;;;;;;7.57;4.57;;;;;;;-3.83;100.00;93881.34;2143491;27;20033;-71
2022/11/27 03:01:57;;;;;;;7.13;4.47;;;;;;;-3.82;100.00;93875.03;2146907;27;20030;-71
2022/11/27 03:03:04;;;;;;;7.53;4.53;;;;;;;-3.82;100.00;93872.41;2146666;27;20105;-72
2022/11/27 03:04:12;;;;;;;5.53;4.25;;;;;;;-3.85;100.00;93875.66;2137314;27;20032;-71
2022/11/27 03:05:18;;;;;;;6.35;4.20;;;;;;;-3.84;100.00;93875.34;2138335;27;20069;-71
2022/11/27 03:06:26;;;;;;;7.22;4.68;;;;;;;-3.84;100.00;93875.34;2140262;27;20075;-71
2022/11/27 03:07:41;;;;;;;6.85;4.15;;;;;;;-3.84;100.00;93872.75;2137838;27;20030;-71
2022/11/27 03:08:55;;;;;;;6.38;4.10;;;;;;;-3.85;100.00;93875.66;2137985;27;20034;-72
2022/11/27 03:10:05;;;;;;;5.88;4.30;;;;;;;-3.84;100.00;93874.59;2137841;27;20014;-72
2022/11/27 03:11:08;;;;;;;8.60;4.50;;;;;;;-3.84;100.00;93872.75;2128519;27;20102;-71
2022/11/27 03:12:11;;;;;;;7.90;4.53;;;;;;;-3.84;100.00;93870.13;2128729;27;20045;-71
2022/11/27 03:13:12;;;;;;;5.82;4.18;;;;;;;-3.83;100.00;93868.28;2128564;27;20023;-71
2022/11/27 03:14:14;;;;;;;8.90;4.97;;;;;;;-3.83;100.00;93860.44;2128585;27;20023;-71
2022/11/27 03:15:15;;;;;;;7.50;4.65;;;;;;;-3.82;100.00;93861.97;2137866;27;20018;-71
2022/11/27 03:16:50;;;;;;;8.32;4.72;;;;;;;-3.81;100.00;93864.31;2137211;27;20065;-71
2022/11/27 03:17:56;;;;;;;7.25;4.13;;;;;;;-3.86;100.00;93859.22;2137893;27;20118;-71
2022/11/27 03:19:12;;;;;;;4.97;4.18;;;;;;;-3.89;100.00;93859.06;2139115;27;20033;-71
2022/11/27 03:20:20;;;;;;;8.98;4.25;;;;;;;-3.90;100.00;93850.47;2146536;27;20026;-71
2022/11/27 03:21:36;;;;;;;6.72;4.32;;;;;;;-3.89;100.00;93854.63;2145788;27;20121;-71
2022/11/27 03:22:37;;;;;;;7.57;4.70;;;;;;;-3.89;100.00;93843.41;2122272;27;20035;-71
2022/11/27 03:23:38;;;;;;;5.97;4.78;;;;;;;-3.86;100.00;93845.41;2128512;27;20018;-71
2022/11/27 03:24:39;;;;;;;5.07;4.10;;;;;;;-3.91;100.00;93853.38;2128390;27;20426;-71
2022/11/27 03:25:40;;;;;;;5.72;3.80;;;;;;;-3.95;100.00;93852.44;2128510;27;20502;-71
2022/11/27 03:26:42;;;;;;;6.25;4.30;;;;;;;-3.97;100.00;93839.69;2128586;27;20027;-71
2022/11/27 03:27:48;;;;;;;4.72;4.18;;;;;;;-3.91;100.00;93848.91;2126359;27;20040;-71
2022/11/27 03:28:52;;;;;;;8.23;4.40;;;;;;;-4.01;100.00;93848.44;2132328;27;20026;-70
2022/11/27 03:29:59;;;;;;;6.65;4.20;;;;;;;-3.92;100.00;93857.06;2131644;27;20030;-71
2022/11/27 03:31:00;;;;;;;4.88;4.30;;;;;;;-3.88;100.00;93853.53;2131778;27;20035;-71
2022/11/27 03:32:03;;;;;;;7.78;4.30;;;;;;;-3.90;100.00;93857.53;2122582;27;20019;-71
2022/11/27 03:33:04;;;;;;;6.03;4.50;;;;;;;-3.72;100.00;93850.47;2123124;27;20034;-71
2022/11/27 03:34:07;;;;;;;6.28;3.92;;;;;;;-3.73;100.00;93857.56;2131773;27;20018;-72
2022/11/27 03:35:11;;;;;;;5.05;4.45;;;;;;;-3.85;100.00;93850.31;2131363;27;20031;-72
2022/11/27 03:36:15;;;;;;;5.07;4.13;;;;;;;-4.01;100.00;93851.84;2131310;27;20344;-71
2022/11/27 03:37:17;;;;;;;6.55;4.22;;;;;;;-3.83;100.00;93852.59;2127198;27;20181;-71
2022/11/27 03:38:18;;;;;;;5.07;3.92;;;;;;;-3.97;100.00;93850.16;2131477;27;20046;-72
2022/11/27 03:39:20;;;;;;;5.28;4.32;;;;;;;-3.98;100.00;93850.47;2140683;27;20033;-71
2022/11/27 03:40:37;;;;;;;5.65;4.20;;;;;;;-3.95;100.00;93842.00;2140504;27;20046;-71
2022/11/27 03:41:53;;;;;;;6.15;4.10;;;;;;;-3.94;100.00;93851.38;2130956;27;20027;-71
2022/11/27 03:43:12;;;;;;;5.32;3.97;;;;;;;-3.98;100.00;93842.63;2128504;27;20034;-72
2022/11/27 03:44:31;;;;;;;5.78;4.25;;;;;;;-3.94;100.00;93841.72;2131952;27;20030;-71
2022/11/27 03:45:50;;;;;;;6.20;4.15;;;;;;;-3.98;100.00;93840.03;2132020;27;20023;-71
2022/11/27 03:47:04;;;;;;;5.97;3.78;;;;;;;-3.97;100.00;93839.69;2131748;27;20758;-71
2022/11/27 03:48:27;;;;;;;4.53;4.00;;;;;;;-3.91;100.00;93833.25;2113917;28;20394;-72
2022/11/27 03:49:56;;;;;;;4.72;3.78;;;;;;;-3.94;100.00;93841.72;2117257;27;20033;-72
2022/11/27 03:51:03;;;;;;;4.70;3.88;;;;;;;-4.00;100.00;93837.69;2126952;27;20049;-72
2022/11/27 03:52:28;;;;;;;6.82;4.50;;;;;;;-3.97;100.00;93837.09;2132047;27;20038;-73
2022/11/27 03:54:09;;;;;;;5.22;3.97;;;;;;;-3.99;100.00;93835.88;2133409;27;20026;-72
2022/11/27 03:55:36;;;;;;;6.32;4.28;;;;;;;-4.04;100.00;93839.38;2130904;27;20031;-72
2022/11/27 03:56:58;;;;;;;4.35;3.78;;;;;;;-4.02;100.00;93831.25;2133989;27;20034;-73
2022/11/27 03:58:07;;;;;;;5.32;3.78;;;;;;;-4.09;100.00;93837.69;2140452;27;20614;-72
2022/11/27 03:59:21;;;;;;;6.00;4.38;;;;;;;-4.08;100.00;93839.25;2133871;27;20031;-72
2022/11/27 04:00:23;;;;;;;6.00;3.70;;;;;;;-4.05;100.00;93838.63;2131295;27;20031;-73
2022/11/27 04:01:26;;;;;;;8.05;4.60;;;;;;;-4.03;100.00;93837.56;2122218;27;20019;-73
2022/11/27 04:02:48;;;;;;;7.75;4.47;;;;;;;-4.03;100.00;93832.34;2122774;27;20023;-72
2022/11/27 04:03:49;;;;;;;8.57;4.18;;;;;;;-4.03;100.00;93827.88;2131628;27;20029;-72
2022/11/27 04:04:50;;;;;;;6.15;4.32;;;;;;;-4.15;100.00;93825.09;2122385;27;20026;-72
2022/11/27 04:05:52;;;;;;;6.25;3.83;;;;;;;-4.09;100.00;93823.88;2122005;27;20030;-72
2022/11/27 04:06:52;;;;;;;5.63;4.07;;;;;;;-4.03;100.00;93830.50;2131232;27;20058;-72
2022/11/27 04:07:57;;;;;;;4.93;4.00;;;;;;;-4.03;100.00;93830.50;2122439;27;20426;-72
2022/11/27 04:08:58;;;;;;;5.40;3.97;;;;;;;-4.09;100.00;93832.47;2122767;27;20027;-72
2022/11/27 04:09:59;;;;;;;5.50;3.85;;;;;;;-3.99;100.00;93823.59;2131653;27;20087;-73
2022/11/27 04:11:00;;;;;;;4.93;4.03;;;;;;;-4.01;100.00;93825.72;2131632;27;20068;-73
2022/11/27 04:12:01;;;;;;;4.28;3.40;;;;;;;-4.01;100.00;93820.50;2131144;27;20083;-73
2022/11/27 04:13:02;;;;;;;5.18;3.83;;;;;;;-4.05;100.00;93819.56;2131747;27;20011;-73
2022/11/27 04:14:03;;;;;;;5.32;3.42;;;;;;;-4.06;100.00;93823.25;2131275;27;20011;-73
2022/11/27 04:15:05;;;;;;;5.07;4.50;;;;;;;-4.06;100.00;93820.66;2129955;27;20110;-73
2022/11/27 04:16:07;;;;;;;6.50;3.80;;;;;;;-4.07;100.00;93817.28;2122218;27;20495;-73
2022/11/27 04:17:08;;;;;;;5.70;3.67;;;;;;;-4.03;100.00;93814.84;2131132;27;20027;-72
2022/11/27 04:18:09;;;;;;;5.55;3.88;;;;;;;-3.98;100.00;93816.53;2131747;27;20042;-72
2022/11/27 04:19:10;;;;;;;5.75;4.35;;;;;;;-4.03;100.00;93809.63;2130453;27;20051;-72
2022/11/27 04:20:13;;;;;;;3.75;3.35;;;;;;;-4.01;100.00;93806.69;2127088;27;20398;-71
2022/11/27 04:21:15;;;;;;;4.85;3.70;;;;;;;-4.07;100.00;93811.28;2122335;27;20106;-71
2022/11/27 04:22:17;;;;;;;4.60;3.53;;;;;;;-4.15;100.00;93818.03;2122496;27;20034;-71
2022/11/27 04:23:18;;;;;;;4.28;3.75;;;;;;;-4.05;100.00;93812.50;2123228;27;20667;-71
2022/11/27 04:24:19;;;;;;;5.10;3.88;;;;;;;-4.12;100.00;93812.22;2122077;27;20119;-71
2022/11/27 04:25:21;;;;;;;4.75;3.45;;;;;;;-4.12;100.00;93804.38;2121976;27;20031;-71
2022/11/27 04:26:23;;;;;;;4.82;3.78;;;;;;;-4.10;100.00;93811.91;2122636;27;20449;-71
2022/11/27 04:27:24;;;;;;;5.32;3.42;;;;;;;-4.10;100.00;93802.22;2122523;27;20059;-72
2022/11/27 04:28:25;;;;;;;6.43;3.58;;;;;;;-4.10;100.00;93799.63;2122526;27;20031;-72
2022/11/27 04:29:26;;;;;;;6.03;3.90;;;;;;;-4.09;100.00;93801.13;2123028;27;20018;-72
2022/11/27 04:30:27;;;;;;;5.68;3.40;;;;;;;-4.10;100.00;93798.84;2124091;27;20528;-72
2022/11/27 04:31:28;;;;;;;7.22;3.35;;;;;;;-4.10;100.00;93798.84;2131312;27;20022;-72
2022/11/27 04:32:29;;;;;;;4.38;3.45;;;;;;;-4.01;100.00;93809.28;2131492;27;20042;-72
2022/11/27 04:33:30;;;;;;;9.50;3.83;;;;;;;-4.03;100.00;93812.22;2131402;27;20514;-72
2022/11/27 04:34:31;;;;;;;5.63;3.55;;;;;;;-4.03;100.00;93808.84;2131410;27;20018;-72
2022/11/27 04:35:32;;;;;;;6.82;4.00;;;;;;;-4.01;100.00;93807.44;2131436;27;20483;-72
2022/11/27 04:36:33;;;;;;;6.13;3.72;;;;;;;-4.07;100.00;93812.06;2124959;27;20026;-72
2022/11/27 04:37:34;;;;;;;8.85;4.10;;;;;;;-4.11;100.00;93805.91;2122791;27;20019;-72
2022/11/27 04:38:35;;;;;;;5.38;3.63;;;;;;;-4.05;100.00;93806.53;2122934;27;20035;-72
2022/11/27 04:39:36;;;;;;;4.32;3.28;;;;;;;-4.01;100.00;93807.44;2122115;27;20023;-72
2022/11/27 04:40:37;;;;;;;4.72;3.17;;;;;;;-4.02;100.00;93803.31;2122070;27;20030;-72
2022/11/27 04:41:38;;;;;;;5.35;3.20;;;;;;;-4.03;100.00;93811.47;2126201;27;20504;-72
2022/11/27 04:42:39;;;;;;;4.50;2.78;;;;;;;-3.96;100.00;93801.31;2131190;27;20480;-72
2022/11/27 04:43:40;;;;;;;4.15;3.10;;;;;;;-3.98;100.00;93800.84;2131177;27;20019;-72
2022/11/27 04:44:41;;;;;;;5.15;3.20;;;;;;;-4.01;100.00;93811.91;2113706;28;20369;-72
2022/11/27 04:45:43;;;;;;;5.75;3.13;;;;;;;-3.95;100.00;93823.72;2113834;27;20510;-72
2022/11/27 04:46:44;;;;;;;7.57;3.00;;;;;;;-3.96;100.00;93811.75;2126768;27;20062;-72
2022/11/27 04:47:45;;;;;;;4.53;3.20;;;;;;;-3.98;100.00;93816.53;2122180;27;20034;-72
2022/11/27 04:48:46;;;;;;;10.63;4.70;;;;;;;-3.96;100.00;93811.75;2122209;27;20034;-72
2022/11/27 04:49:47;;;;;;;4.22;3.67;;;;;;;-4.01;100.00;93811.91;2121854;27;20406;-72
2022/11/27 04:50:48;;;;;;;5.38;3.28;;;;;;;-4.02;100.00;93811.13;2113327;28;20015;-72
2022/11/27 04:51:48;;;;;;;4.60;3.20;;;;;;;-3.97;100.00;93812.81;2113404;28;20015;-72
2022/11/27 04:52:49;;;;;;;5.15;3.55;;;;;;;-4.07;100.00;93808.69;2113732;28;20024;-72
2022/11/27 04:53:50;;;;;;;4.70;3.50;;;;;;;-3.99;100.00;93818.38;2122240;27;20050;-71
2022/11/27 04:54:51;;;;;;;3.97;3.30;;;;;;;-4.03;100.00;93819.28;2122384;27;20428;-71
2022/11/27 04:55:52;;;;;;;5.00;3.15;;;;;;;-4.08;100.00;93820.97;2122477;27;20027;-71
2022/11/27 04:56:53;;;;;;;4.97;3.55;;;;;;;-4.02;100.00;93821.59;2122969;27;20023;-71
2022/11/27 04:57:54;;;;;;;4.68;3.22;;;;;;;-4.12;100.00;93816.66;2130765;27;20353;-71
2022/11/27 04:58:55;;;;;;;6.03;3.50;;;;;;;-4.08;100.00;93814.97;2131249;27;20360;-71
2022/11/27 04:59:56;;;;;;;4.75;3.53;;;;;;;-4.03;100.00;93814.06;2131272;27;20078;-71
2022/11/27 05:00:57;;;;;;;3.45;3.08;;;;;;;-4.03;100.00;93814.06;2130886;27;20030;-71
2022/11/27 05:01:58;;;;;;;4.57;3.50;;;;;;;-4.07;100.00;93819.91;2129655;27;20050;-71